createdAt,value
2023-03-29T00:00:52.588Z,69.68
2023-03-29T00:03:19.295Z,69.88
2023-03-29T00:05:46.462Z,69.68
2023-03-29T00:08:14.606Z,69.95
2023-03-29T00:10:42.059Z,69.68
2023-03-29T00:13:08.670Z,70.09
2023-03-29T00:15:35.589Z,70.54
2023-03-29T00:18:02.476Z,70.55
2023-03-29T00:20:29.138Z,71.08
2023-03-29T00:22:55.731Z,71.15
2023-03-29T00:25:22.392Z,71.74
2023-03-29T00:27:49.161Z,71.73
2023-03-29T00:30:16.430Z,71.61
2023-03-29T00:32:43.682Z,71.53
2023-03-29T00:35:10.969Z,71.25
2023-03-29T00:37:38.481Z,71.14
2023-03-29T00:40:09.601Z,71.50
2023-03-29T00:42:36.193Z,72.05
2023-03-29T00:45:02.734Z,72.37
2023-03-29T00:47:38.270Z,72.06
2023-03-29T00:50:12.434Z,72.05
2023-03-29T00:52:39.832Z,72.00
2023-03-29T00:55:11.742Z,72.04
2023-03-29T00:57:39.828Z,72.25
2023-03-29T01:00:10.210Z,72.38
2023-03-29T01:02:39.915Z,72.62
2023-03-29T01:05:10.216Z,72.91
2023-03-29T01:08:03.898Z,73.13
2023-03-29T01:10:41.826Z,72.89
2023-03-29T01:13:11.588Z,73.57
2023-03-29T01:15:41.061Z,73.74
2023-03-29T01:18:08.764Z,73.88
2023-03-29T01:20:43.423Z,74.35
2023-03-29T01:23:22.210Z,74.61
2023-03-29T01:26:01.115Z,74.40
2023-03-29T01:28:37.278Z,74.51
2023-03-29T01:31:08.505Z,75.09
2023-03-29T01:33:40.311Z,74.93
2023-03-29T01:36:17.494Z,75.14
2023-03-29T01:38:48.404Z,75.31
2023-03-29T01:41:14.996Z,75.15
2023-03-29T01:43:46.864Z,74.96
2023-03-29T01:46:28.149Z,75.29
2023-03-29T01:49:11.246Z,75.33
2023-03-29T01:51:44.254Z,74.93
2023-03-29T01:54:20.776Z,75.34
2023-03-29T01:56:49.604Z,75.38
2023-03-29T01:59:23.289Z,75.63
2023-03-29T02:01:52.881Z,75.13
2023-03-29T02:04:29.070Z,75.54
2023-03-29T02:06:57.903Z,75.38
2023-03-29T02:09:24.498Z,75.28
2023-03-29T02:11:51.884Z,75.39
2023-03-29T02:14:18.451Z,75.53
2023-03-29T02:16:46.373Z,75.26
2023-03-29T02:19:13.565Z,74.95
2023-03-29T02:21:48.324Z,74.71
2023-03-29T02:24:18.282Z,75.16
2023-03-29T02:26:44.857Z,75.38
2023-03-29T02:29:11.663Z,75.46
2023-03-29T02:31:41.476Z,75.55
2023-03-29T02:34:30.320Z,75.50
2023-03-29T02:37:04.179Z,75.71
2023-03-29T02:39:33.751Z,75.60
2023-03-29T02:42:01.313Z,75.67
2023-03-29T02:44:30.577Z,75.29
2023-03-29T02:47:00.475Z,75.26
2023-03-29T02:49:27.277Z,75.22
2023-03-29T02:51:56.922Z,75.45
2023-03-29T02:54:29.936Z,75.65
2023-03-29T02:56:58.492Z,74.95
2023-03-29T02:59:25.067Z,75.28
2023-03-29T03:01:54.885Z,75.70
2023-03-29T03:04:21.479Z,75.49
2023-03-29T03:06:48.377Z,76.04
2023-03-29T03:09:15.695Z,75.99
2023-03-29T03:11:42.503Z,76.08
2023-03-29T03:14:09.051Z,75.76
2023-03-29T03:16:36.232Z,75.75
2023-03-29T03:19:03.818Z,75.73
2023-03-29T03:21:30.355Z,75.49
2023-03-29T03:23:57.014Z,74.97
2023-03-29T03:26:24.967Z,75.43
2023-03-29T03:28:51.545Z,75.49
2023-03-29T03:31:19.659Z,75.25
2023-03-29T03:33:46.227Z,75.51
2023-03-29T03:36:12.903Z,75.42
2023-03-29T03:38:40.043Z,75.60
2023-03-29T03:41:07.260Z,75.38
2023-03-29T03:43:34.209Z,75.71
2023-03-29T03:46:01.429Z,75.73
2023-03-29T03:48:28.518Z,75.68
2023-03-29T03:50:57.226Z,75.92
2023-03-29T03:53:24.856Z,76.09
2023-03-29T03:55:53.255Z,75.92
2023-03-29T03:58:20.034Z,76.36
2023-03-29T04:00:48.419Z,76.35
2023-03-29T04:03:15.766Z,76.55
2023-03-29T04:05:44.605Z,76.43
2023-03-29T04:08:12.530Z,76.04
2023-03-29T04:10:39.636Z,76.15
2023-03-29T04:13:06.230Z,76.22
2023-03-29T04:15:35.292Z,76.55
2023-03-29T04:18:02.042Z,76.39
2023-03-29T04:20:28.592Z,76.94
2023-03-29T04:22:55.926Z,76.72
2023-03-29T04:25:22.465Z,77.52
2023-03-29T04:27:50.562Z,77.39
2023-03-29T04:30:17.287Z,77.33
2023-03-29T04:32:44.045Z,77.51
2023-03-29T04:35:10.660Z,77.58
2023-03-29T04:37:40.302Z,77.39
2023-03-29T04:40:14.460Z,77.53
2023-03-29T04:42:45.821Z,77.44
2023-03-29T04:45:18.153Z,77.56
2023-03-29T04:47:45.760Z,77.58
2023-03-29T04:50:13.815Z,77.58
2023-03-29T04:52:41.036Z,78.18
2023-03-29T04:55:08.222Z,78.06
2023-03-29T04:57:34.938Z,78.22
2023-03-29T05:00:01.540Z,78.47
2023-03-29T05:02:30.959Z,78.58
2023-03-29T05:04:57.524Z,78.93
2023-03-29T05:07:24.618Z,78.81
2023-03-29T05:09:51.243Z,79.38
2023-03-29T05:12:17.850Z,79.25
2023-03-29T05:14:44.432Z,79.15
2023-03-29T05:17:10.947Z,79.38
2023-03-29T05:19:38.352Z,79.72
2023-03-29T05:22:04.994Z,79.43
2023-03-29T05:24:31.778Z,79.38
2023-03-29T05:26:58.365Z,79.90
2023-03-29T05:29:25.004Z,80.27
2023-03-29T05:31:52.498Z,80.67
2023-03-29T05:34:20.156Z,80.47
2023-03-29T05:36:46.712Z,80.79
2023-03-29T05:39:13.521Z,80.89
2023-03-29T05:41:40.394Z,81.10
2023-03-29T05:44:07.376Z,80.98
2023-03-29T05:46:34.304Z,81.01
2023-03-29T05:49:01.701Z,81.45
2023-03-29T05:51:28.267Z,81.51
2023-03-29T05:53:54.830Z,80.93
2023-03-29T05:56:22.878Z,81.65
2023-03-29T05:58:49.551Z,81.26
2023-03-29T06:01:17.995Z,81.65
2023-03-29T06:03:46.258Z,81.51
2023-03-29T06:06:16.475Z,81.87
2023-03-29T06:08:44.067Z,81.45
2023-03-29T06:11:12.124Z,81.92
2023-03-29T06:13:39.115Z,81.82
2023-03-29T06:16:10.118Z,81.97
2023-03-29T06:18:38.137Z,82.02
2023-03-29T06:21:05.102Z,81.93
2023-03-29T06:23:32.114Z,82.09
2023-03-29T06:26:00.183Z,82.46
2023-03-29T06:28:26.778Z,82.53
2023-03-29T06:30:56.569Z,82.33
2023-03-29T06:33:24.210Z,82.40
2023-03-29T06:35:50.787Z,81.67
2023-03-29T06:38:17.602Z,82.11
2023-03-29T06:40:44.760Z,82.01
2023-03-29T06:43:11.915Z,81.72
2023-03-29T06:45:38.983Z,81.65
2023-03-29T06:48:06.450Z,82.19
2023-03-29T06:50:34.343Z,82.15
2023-03-29T06:53:01.789Z,82.15
2023-03-29T06:55:28.713Z,82.45
2023-03-29T06:57:55.419Z,82.38
2023-03-29T07:00:28.651Z,82.34
2023-03-29T07:02:56.556Z,82.37
2023-03-29T07:05:23.957Z,82.01
2023-03-29T07:11:46.723Z,82.08
2023-03-29T07:14:13.219Z,81.85
2023-03-29T07:16:39.847Z,82.01
2023-03-29T07:19:06.427Z,82.04
2023-03-29T07:21:34.905Z,82.48
2023-03-29T07:24:04.624Z,82.34
2023-03-29T07:26:32.231Z,82.62
2023-03-29T07:28:59.056Z,83.08
2023-03-29T07:31:25.670Z,83.27
2023-03-29T07:33:53.257Z,82.80
2023-03-29T07:36:19.936Z,82.94
2023-03-29T07:38:49.096Z,83.30
2023-03-29T07:41:16.053Z,83.31
2023-03-29T07:43:42.838Z,83.01
2023-03-29T07:46:10.318Z,83.02
2023-03-29T07:48:37.238Z,82.59
2023-03-29T07:51:04.653Z,82.91
2023-03-29T07:53:31.320Z,82.84
2023-03-29T07:55:57.903Z,83.12
2023-03-29T07:58:24.474Z,83.21
2023-03-29T08:00:51.035Z,83.02
2023-03-29T08:03:17.804Z,83.13
2023-03-29T08:05:45.010Z,82.96
2023-03-29T08:08:11.688Z,83.74
2023-03-29T08:10:39.519Z,84.08
2023-03-29T08:13:08.372Z,84.29
2023-03-29T08:15:35.936Z,84.40
2023-03-29T08:18:05.300Z,83.41
2023-03-29T08:20:32.658Z,83.23
2023-03-29T08:22:59.443Z,82.42
2023-03-29T08:25:25.964Z,82.59
2023-03-29T08:27:53.085Z,82.54
2023-03-29T08:30:19.731Z,81.60
2023-03-29T08:32:49.325Z,81.62
2023-03-29T08:35:17.554Z,81.58
2023-03-29T08:37:44.062Z,81.87
2023-03-29T08:40:17.680Z,81.39
2023-03-29T08:42:57.102Z,81.17
2023-03-29T08:45:50.457Z,81.42
2023-03-29T08:48:28.543Z,81.69
2023-03-29T08:50:59.590Z,81.86
2023-03-29T08:53:32.154Z,82.07
2023-03-29T08:56:00.349Z,82.88
2023-03-29T08:58:30.080Z,83.17
2023-03-29T09:00:58.303Z,83.04
2023-03-29T09:03:26.196Z,83.11
2023-03-29T09:05:58.528Z,83.54
2023-03-29T09:08:25.641Z,83.64
2023-03-29T09:11:05.066Z,83.16
2023-03-29T09:13:45.042Z,83.64
2023-03-29T09:16:17.395Z,83.88
2023-03-29T09:18:51.478Z,83.73
2023-03-29T09:22:19.491Z,83.78
2023-03-29T09:24:52.117Z,83.97
2023-03-29T09:27:18.558Z,84.46
2023-03-29T09:30:26.040Z,85.02
2023-03-29T09:32:53.858Z,85.51
2023-03-29T09:35:24.594Z,85.43
2023-03-29T09:37:52.736Z,85.99
2023-03-29T09:40:25.243Z,85.96
2023-03-29T09:42:52.909Z,86.07
2023-03-29T09:45:19.536Z,86.49
2023-03-29T09:47:47.442Z,86.68
2023-03-29T09:50:30.333Z,87.63
2023-03-29T09:52:57.856Z,88.13
2023-03-29T09:55:28.468Z,88.69
2023-03-29T09:57:59.063Z,88.53
2023-03-29T10:00:25.927Z,87.93
2023-03-29T10:02:54.684Z,87.74
2023-03-29T10:05:21.996Z,87.57
2023-03-29T10:07:52.041Z,87.00
2023-03-29T10:10:28.801Z,87.15
2023-03-29T10:13:05.396Z,86.65
2023-03-29T10:15:32.193Z,86.69
2023-03-29T10:18:01.033Z,85.79
2023-03-29T10:20:28.114Z,85.56
2023-03-29T10:22:56.778Z,84.86
2023-03-29T10:25:31.274Z,85.22
2023-03-29T10:28:05.189Z,84.07
2023-03-29T10:30:36.076Z,83.93
2023-03-29T10:33:03.383Z,82.89
2023-03-29T10:35:41.753Z,82.76
2023-03-29T10:38:13.400Z,82.80
2023-03-29T10:40:48.156Z,82.08
2023-03-29T10:43:17.697Z,80.39
2023-03-29T10:45:44.326Z,80.17
2023-03-29T10:48:13.124Z,81.08
2023-03-29T10:50:39.643Z,80.82
2023-03-29T10:53:23.550Z,80.44
2023-03-29T10:56:15.009Z,81.53
2023-03-29T10:59:23.617Z,81.97
2023-03-29T11:02:11.580Z,82.15
2023-03-29T11:04:52.773Z,82.98
2023-03-29T11:07:28.394Z,82.72
2023-03-29T11:10:01.019Z,82.09
2023-03-29T11:12:31.340Z,81.80
2023-03-29T11:15:01.460Z,82.44
2023-03-29T11:17:59.989Z,82.37
2023-03-29T11:20:35.754Z,82.30
2023-03-29T11:23:11.388Z,82.24
2023-03-29T11:25:43.282Z,83.63
2023-03-29T11:28:22.283Z,83.47
2023-03-29T11:31:01.648Z,83.65
2023-03-29T11:33:57.188Z,83.72
2023-03-29T11:36:42.138Z,83.79
2023-03-29T11:39:17.471Z,83.36
2023-03-29T11:41:46.986Z,83.60
2023-03-29T11:44:18.031Z,83.03
2023-03-29T11:46:53.199Z,82.51
2023-03-29T11:49:57.407Z,81.02
2023-03-29T11:52:35.852Z,80.08
2023-03-29T11:55:26.510Z,80.11
2023-03-29T11:57:58.893Z,79.94
2023-03-29T12:00:30.227Z,80.45
2023-03-29T12:03:06.774Z,81.04
2023-03-29T12:05:46.879Z,80.94
2023-03-29T12:08:25.929Z,80.94
2023-03-29T12:11:16.939Z,80.59
2023-03-29T12:13:49.133Z,80.00
2023-03-29T12:16:20.657Z,79.93
2023-03-29T12:18:49.211Z,79.52
2023-03-29T12:21:20.161Z,78.76
2023-03-29T12:23:48.106Z,78.41
2023-03-29T12:26:17.589Z,77.82
2023-03-29T12:28:44.021Z,77.11
2023-03-29T12:31:24.080Z,76.66
2023-03-29T12:36:43.878Z,75.38
2023-03-29T12:39:18.828Z,75.44
2023-03-29T12:41:49.018Z,76.19
2023-03-29T12:44:16.704Z,75.67
2023-03-29T12:46:43.758Z,74.48
2023-03-29T12:49:21.081Z,74.41
2023-03-29T12:51:47.838Z,74.60
2023-03-29T12:54:16.450Z,73.47
2023-03-29T12:56:52.136Z,74.41
2023-03-29T12:59:45.157Z,73.77
2023-03-29T13:02:14.752Z,73.12
2023-03-29T13:04:53.817Z,73.67
2023-03-29T13:07:23.546Z,71.99
2023-03-29T13:09:51.786Z,73.19
2023-03-29T13:12:27.058Z,73.59
2023-03-29T13:14:59.901Z,73.10
2023-03-29T13:17:48.442Z,72.83
2023-03-29T13:20:32.960Z,72.34
2023-03-29T13:23:21.169Z,71.84
2023-03-29T13:26:27.174Z,73.13
2023-03-29T13:29:22.414Z,72.43
2023-03-29T13:32:03.678Z,72.13
2023-03-29T13:34:43.110Z,72.20
2023-03-29T13:37:25.040Z,71.89
2023-03-29T13:39:55.201Z,73.22
2023-03-29T13:42:25.893Z,73.18
2023-03-29T13:44:53.829Z,72.28
2023-03-29T13:47:32.467Z,72.35
2023-03-29T13:50:01.500Z,72.64
2023-03-29T13:52:31.452Z,72.59
2023-03-29T13:54:58.212Z,72.83
2023-03-29T13:57:39.794Z,71.61
2023-03-29T14:00:18.197Z,70.63
2023-03-29T14:02:51.036Z,70.17
2023-03-29T14:05:24.557Z,70.31
2023-03-29T14:07:53.050Z,69.62
2023-03-29T14:10:36.206Z,69.19
2023-03-29T14:13:04.077Z,69.47
2023-03-29T14:15:45.965Z,68.88
2023-03-29T14:18:15.687Z,67.34
2023-03-29T14:20:50.716Z,66.73
2023-03-29T14:23:21.230Z,67.02
2023-03-29T14:25:48.153Z,66.41
2023-03-29T14:28:25.907Z,66.26
2023-03-29T14:30:53.661Z,67.53
2023-03-29T14:33:27.969Z,66.78
2023-03-29T14:35:55.670Z,67.34
2023-03-29T14:38:26.259Z,67.06
2023-03-29T14:40:53.389Z,68.13
2023-03-29T14:43:24.455Z,68.41
2023-03-29T14:45:51.151Z,69.41
2023-03-29T14:48:18.040Z,69.56
2023-03-29T14:50:45.857Z,69.92
2023-03-29T14:53:20.735Z,70.02
2023-03-29T14:55:52.395Z,70.18
2023-03-29T14:58:40.197Z,70.93
2023-03-29T15:01:14.104Z,70.58
2023-03-29T15:03:43.915Z,70.77
2023-03-29T15:06:11.837Z,70.66
2023-03-29T15:08:42.704Z,71.31
2023-03-29T15:11:21.851Z,71.48
2023-03-29T15:13:49.861Z,71.36
2023-03-29T15:16:19.652Z,72.09
2023-03-29T15:18:47.378Z,72.13
2023-03-29T15:21:16.765Z,72.33
2023-03-29T15:23:53.596Z,72.67
2023-03-29T15:26:34.392Z,72.69
2023-03-29T15:29:08.016Z,72.99
2023-03-29T15:31:37.372Z,72.95
2023-03-29T15:34:25.043Z,73.06
2023-03-29T15:36:52.057Z,73.18
2023-03-29T15:39:20.017Z,73.14
2023-03-29T15:41:48.463Z,72.87
2023-03-29T15:44:17.563Z,73.00
2023-03-29T15:46:45.225Z,73.27
2023-03-29T15:49:12.671Z,73.32
2023-03-29T15:51:39.856Z,73.06
2023-03-29T15:54:06.508Z,73.39
2023-03-29T15:56:37.139Z,73.19
2023-03-29T15:59:06.977Z,73.62
2023-03-29T16:01:37.686Z,73.71
2023-03-29T16:04:12.222Z,73.57
2023-03-29T16:06:39.015Z,73.94
2023-03-29T16:09:07.019Z,73.87
2023-03-29T16:11:33.643Z,73.97
2023-03-29T16:14:00.286Z,73.65
2023-03-29T16:16:27.176Z,73.46
2023-03-29T16:18:53.739Z,73.82
2023-03-29T16:21:22.259Z,73.82
2023-03-29T16:23:48.839Z,73.93
2023-03-29T16:26:16.792Z,74.04
2023-03-29T16:28:43.521Z,73.96
2023-03-29T16:31:13.811Z,74.59
2023-03-29T16:33:40.982Z,74.92
2023-03-29T16:36:08.249Z,74.66
2023-03-29T16:38:35.443Z,75.34
2023-03-29T16:41:02.546Z,75.15
2023-03-29T16:43:29.393Z,75.57
2023-03-29T16:45:56.859Z,75.71
2023-03-29T16:48:23.792Z,75.94
2023-03-29T16:50:50.678Z,76.01
2023-03-29T16:53:18.634Z,76.03
2023-03-29T16:55:46.421Z,75.72
2023-03-29T16:58:13.626Z,75.78
2023-03-29T17:00:40.939Z,75.72
2023-03-29T17:03:08.031Z,75.63
2023-03-29T17:05:39.940Z,75.78
2023-03-29T17:08:07.368Z,76.09
2023-03-29T17:10:33.916Z,76.27
2023-03-29T17:13:00.878Z,76.54
2023-03-29T17:15:27.720Z,76.50
2023-03-29T17:17:54.281Z,76.61
2023-03-29T17:20:20.790Z,77.08
2023-03-29T17:22:51.497Z,77.06
2023-03-29T17:25:18.488Z,77.22
2023-03-29T17:27:46.112Z,77.04
2023-03-29T17:30:12.997Z,77.14
2023-03-29T17:32:41.337Z,77.50
2023-03-29T17:35:08.484Z,77.53
2023-03-29T17:37:35.996Z,77.92
2023-03-29T17:40:15.267Z,78.21
2023-03-29T17:42:42.686Z,78.11
2023-03-29T17:45:10.636Z,77.94
2023-03-29T17:47:38.450Z,78.08
2023-03-29T17:50:06.747Z,77.82
2023-03-29T17:52:33.349Z,77.57
2023-03-29T17:54:59.924Z,77.78
2023-03-29T17:57:26.613Z,77.38
2023-03-29T17:59:53.188Z,77.48
2023-03-29T18:02:22.287Z,77.98
2023-03-29T18:04:49.058Z,78.20
2023-03-29T18:07:16.294Z,78.43
2023-03-29T18:09:42.839Z,78.98
2023-03-29T18:12:09.410Z,79.19
2023-03-29T18:14:36.023Z,79.41
2023-03-29T18:17:02.808Z,79.65
2023-03-29T18:19:29.514Z,79.63
2023-03-29T18:21:56.373Z,79.67
2023-03-29T18:24:22.879Z,79.92
2023-03-29T18:26:49.479Z,79.98
2023-03-29T18:29:16.355Z,80.22
2023-03-29T18:31:43.661Z,80.18
2023-03-29T18:34:10.260Z,80.15
2023-03-29T18:36:37.141Z,80.32
2023-03-29T18:39:06.774Z,80.29
2023-03-29T18:41:34.602Z,79.77
2023-03-29T18:44:01.373Z,79.50
2023-03-29T18:46:31.943Z,79.45
2023-03-29T18:48:59.491Z,79.78
2023-03-29T18:51:28.038Z,79.97
2023-03-29T18:53:55.913Z,79.60
2023-03-29T18:56:22.752Z,79.29
2023-03-29T18:58:49.492Z,79.00
2023-03-29T19:01:16.395Z,78.37
2023-03-29T19:03:43.169Z,78.03
2023-03-29T19:06:09.920Z,78.27
2023-03-29T19:08:38.755Z,77.84
2023-03-29T19:11:07.499Z,77.75
2023-03-29T19:13:34.587Z,77.77
2023-03-29T19:16:01.486Z,77.30
2023-03-29T19:18:28.207Z,77.35
2023-03-29T19:20:54.885Z,77.02
2023-03-29T19:23:25.119Z,76.86
2023-03-29T19:25:56.494Z,76.61
2023-03-29T19:28:24.281Z,76.49
2023-03-29T19:30:51.219Z,76.10
2023-03-29T19:33:18.439Z,75.99
2023-03-29T19:35:45.084Z,75.96
2023-03-29T19:38:11.764Z,76.01
2023-03-29T19:40:38.502Z,75.77
2023-03-29T19:43:05.244Z,75.85
2023-03-29T19:45:31.839Z,76.11
2023-03-29T19:48:02.823Z,75.89
2023-03-29T19:50:31.658Z,76.12
2023-03-29T19:52:58.628Z,75.86
2023-03-29T19:55:25.960Z,75.97
2023-03-29T19:57:52.553Z,75.81
2023-03-29T20:00:24.303Z,75.65
2023-03-29T20:02:52.311Z,75.36
2023-03-29T20:05:19.085Z,75.24
2023-03-29T20:07:45.703Z,75.22
2023-03-29T20:10:12.244Z,75.19
2023-03-29T20:12:38.805Z,75.08
2023-03-29T20:15:06.131Z,74.79
2023-03-29T20:17:35.611Z,74.77
2023-03-29T20:20:07.794Z,74.63
2023-03-29T20:22:34.413Z,74.58
2023-03-29T20:25:00.957Z,74.31
2023-03-29T20:27:29.362Z,74.69
2023-03-29T20:29:56.092Z,74.50
2023-03-29T20:32:22.740Z,74.54
2023-03-29T20:34:49.363Z,74.52
2023-03-29T20:37:15.918Z,74.58
2023-03-29T20:39:42.456Z,74.66
2023-03-29T20:42:08.967Z,73.80
2023-03-29T20:44:35.712Z,73.46
2023-03-29T20:47:03.365Z,73.52
2023-03-29T20:49:36.988Z,73.42
2023-03-29T20:52:07.947Z,73.78
2023-03-29T20:54:35.743Z,73.62
2023-03-29T20:57:02.358Z,73.75
2023-03-29T20:59:29.755Z,73.26
2023-03-29T21:01:56.660Z,72.88
2023-03-29T21:04:23.381Z,72.59
2023-03-29T21:06:49.843Z,72.39
2023-03-29T21:09:19.166Z,72.14
2023-03-29T21:11:45.739Z,71.48
2023-03-29T21:14:12.341Z,71.35
2023-03-29T21:16:42.388Z,71.30
2023-03-29T21:19:09.629Z,71.61
2023-03-29T21:21:36.397Z,71.30
2023-03-29T21:24:03.867Z,71.18
2023-03-29T21:26:30.550Z,70.70
2023-03-29T21:28:57.157Z,70.49
2023-03-29T21:31:23.953Z,70.44
2023-03-29T21:33:50.630Z,70.09
2023-03-29T21:36:17.142Z,70.22
2023-03-29T21:38:43.663Z,69.93
2023-03-29T21:41:11.979Z,70.02
2023-03-29T21:43:39.270Z,69.81
2023-03-29T21:46:06.162Z,69.77
2023-03-29T21:48:33.024Z,69.60
2023-03-29T21:50:59.544Z,69.74
2023-03-29T21:53:27.210Z,69.66
2023-03-29T21:55:54.076Z,69.23
2023-03-29T21:58:21.048Z,69.66
2023-03-29T22:00:48.191Z,69.49
2023-03-29T22:03:15.827Z,69.96
2023-03-29T22:05:42.724Z,69.81
2023-03-29T22:08:12.034Z,70.23
2023-03-29T22:10:41.236Z,70.29
2023-03-29T22:13:08.771Z,70.00
2023-03-29T22:15:35.629Z,70.00
2023-03-29T22:18:05.352Z,70.18
2023-03-29T22:20:35.745Z,69.99
2023-03-29T22:23:03.278Z,70.14
2023-03-29T22:25:29.798Z,70.55
2023-03-29T22:27:56.312Z,70.53
2023-03-29T22:30:22.954Z,70.48
2023-03-29T22:32:49.551Z,70.51
2023-03-29T22:35:16.229Z,70.14
2023-03-29T22:37:43.669Z,70.03
2023-03-29T22:40:11.532Z,70.21
2023-03-29T22:42:38.110Z,70.19
2023-03-29T22:45:06.386Z,70.19
2023-03-29T22:47:32.853Z,70.10
2023-03-29T22:49:59.383Z,70.03
2023-03-29T22:52:26.190Z,70.24
2023-03-29T22:54:52.719Z,70.35
2023-03-29T22:57:19.301Z,70.15
2023-03-29T22:59:46.129Z,69.99
2023-03-29T23:02:12.617Z,69.83
2023-03-29T23:04:39.268Z,69.44
2023-03-29T23:07:06.477Z,68.86
2023-03-29T23:09:33.021Z,68.64
2023-03-29T23:12:01.086Z,68.09
2023-03-29T23:14:27.862Z,67.62
2023-03-29T23:16:54.430Z,67.55
2023-03-29T23:19:21.097Z,67.23
2023-03-29T23:21:47.707Z,65.88
2023-03-29T23:24:18.828Z,65.58
2023-03-29T23:26:45.843Z,64.55
2023-03-29T23:29:12.524Z,63.97
2023-03-29T23:31:39.066Z,63.87
2023-03-29T23:34:05.643Z,64.03
2023-03-29T23:36:32.286Z,64.43
2023-03-29T23:38:59.526Z,65.00
2023-03-29T23:41:28.345Z,66.55
2023-03-29T23:43:57.581Z,67.39
2023-03-29T23:46:24.641Z,67.42
2023-03-29T23:48:51.400Z,67.43
2023-03-29T23:51:23.020Z,67.89
2023-03-29T23:53:50.179Z,67.69
2023-03-29T23:56:16.878Z,67.99
2023-03-29T23:58:44.393Z,68.05
